Airport Name : Bray

Other Name : Albert

ICAO : LFAQ

IATA :

FAA :

Latitude : 49.971531

Longitude : 2.697661

Country : France

Local Date and Time : 1/21/2018 7:32:00 PM

 

TAF (Terminal Aerodrome Forecast)

TAF LFAQ 211400Z 2115/2124 16010KT 8000 -RA OVC008 TEMPO 2115/2124 2000 RADZ OVC003 PROB30 TEMPO 2115/2117 1200 -SN OVC002 BECMG 2122/2124 24010KT PROB40 TEMPO 2122/2124 0800 DZ FG VV///

 

METAR (METeorological Aerodrome Report)